AIC2025 VIDP-EDDF
Flight info
| Callsign | AIC2025 |
|---|---|
| Flight time | N/A |
| Altitude | 34000 |
| Route | DUDUM7G DUDUM Q2 NIKOT R462 UUD J61 LAXOM L639 RASKI N881 KIPOL L444 TOLDA DCT DARAT B400 MEVLI L883 SITOL DCT ULUXU L556 EGREN L425 WDR/N0495F360 L425 BOSUT Q11 JDW M686 OTEMO T55 TANSA/N0479F380 DCT PEXAN DCT BITLA DCT ENFAR DCT UTOMO DCT KEB DCT IRDIV DCT PODET DCT SIMBA DCT AKINI T161 DEBHI DEBHI1B |
| Aircraft | B77W/H-SDE1E2E3FGHIJ2J3J4J5M1RWXY/LB1D1 |
Departure
| Time | N/A |
|---|---|
| Airport | Indira Gandhi International Airport (VIDP) |
Arrival
| Time | 2026-05-06 14:43 |
|---|---|
| Airport | Frankfurt Main Airport (EDDF) |
| Time | Latitude | Longitude | Altitude | Speed | Heading |
|---|---|---|---|---|---|
| 2026-05-06 14:04 | 48.18088 | 13.08165 | 33726 ft | 465 kts | 310° |
| 2026-05-06 14:05 | 48.22870 | 13.01662 | 33716 ft | 464 kts | 306° |
| 2026-05-06 14:05 | 48.27200 | 12.94482 | 33719 ft | 456 kts | 303° |
| 2026-05-06 14:06 | 48.31398 | 12.87385 | 33717 ft | 457 kts | 303° |
| 2026-05-06 14:06 | 48.35630 | 12.80199 | 33727 ft | 458 kts | 303° |
| 2026-05-06 14:07 | 48.39845 | 12.73023 | 33725 ft | 459 kts | 304° |
| 2026-05-06 14:07 | 48.44058 | 12.65829 | 33733 ft | 457 kts | 304° |
| 2026-05-06 14:08 | 48.48264 | 12.58625 | 33747 ft | 460 kts | 304° |
| 2026-05-06 14:08 | 48.52494 | 12.51360 | 33735 ft | 459 kts | 304° |
| 2026-05-06 14:09 | 48.56675 | 12.44159 | 33731 ft | 461 kts | 304° |
| 2026-05-06 14:09 | 48.60920 | 12.36830 | 33728 ft | 461 kts | 304° |
| 2026-05-06 14:10 | 48.65113 | 12.29569 | 33734 ft | 458 kts | 303° |
| 2026-05-06 14:10 | 48.69297 | 12.22303 | 33736 ft | 459 kts | 303° |
| 2026-05-06 14:11 | 48.73202 | 12.14695 | 33731 ft | 451 kts | 293° |
| 2026-05-06 14:11 | 48.74576 | 12.10476 | 33730 ft | 439 kts | 285° |
| 2026-05-06 14:11 | 48.75504 | 12.06117 | 33735 ft | 433 kts | 277° |
| 2026-05-06 14:12 | 48.76574 | 11.97246 | 33737 ft | 428 kts | 274° |
| 2026-05-06 14:12 | 48.77563 | 11.88247 | 33748 ft | 432 kts | 273° |
| 2026-05-06 14:13 | 48.78537 | 11.79226 | 33756 ft | 431 kts | 273° |
| 2026-05-06 14:13 | 48.79498 | 11.70199 | 33762 ft | 433 kts | 273° |
| 2026-05-06 14:14 | 48.80448 | 11.61171 | 33767 ft | 433 kts | 273° |
| 2026-05-06 14:14 | 48.81384 | 11.52157 | 33768 ft | 434 kts | 273° |
| 2026-05-06 14:15 | 48.82317 | 11.43101 | 33766 ft | 433 kts | 273° |
| 2026-05-06 14:15 | 48.83239 | 11.34063 | 33770 ft | 435 kts | 272° |
| 2026-05-06 14:16 | 48.84840 | 11.25115 | 33775 ft | 447 kts | 287° |
| 2026-05-06 14:16 | 48.88173 | 11.16953 | 33779 ft | 466 kts | 303° |
| 2026-05-06 14:17 | 48.92861 | 11.10084 | 33775 ft | 472 kts | 311° |
| 2026-05-06 14:17 | 48.97742 | 11.03348 | 33772 ft | 472 kts | 311° |
| 2026-05-06 14:18 | 49.00152 | 11.00000 | 33447 ft | 466 kts | 311° |
| 2026-05-06 14:18 | 49.02539 | 10.96664 | 32490 ft | 473 kts | 311° |
| 2026-05-06 14:18 | 49.05002 | 10.93211 | 31547 ft | 479 kts | 312° |
| 2026-05-06 14:18 | 49.07446 | 10.89776 | 30699 ft | 483 kts | 313° |
| 2026-05-06 14:19 | 49.09904 | 10.86319 | 30090 ft | 479 kts | 313° |
| 2026-05-06 14:19 | 49.12333 | 10.82895 | 29580 ft | 473 kts | 313° |
| 2026-05-06 14:19 | 49.14704 | 10.79544 | 29057 ft | 467 kts | 313° |
| 2026-05-06 14:19 | 49.17087 | 10.76172 | 28501 ft | 462 kts | 313° |
| 2026-05-06 14:20 | 49.19423 | 10.72859 | 27960 ft | 458 kts | 313° |
| 2026-05-06 14:20 | 49.21704 | 10.69461 | 27427 ft | 451 kts | 310° |
| 2026-05-06 14:20 | 49.23869 | 10.66029 | 26882 ft | 446 kts | 310° |
| 2026-05-06 14:20 | 49.26009 | 10.62625 | 26333 ft | 442 kts | 310° |
| 2026-05-06 14:21 | 49.28135 | 10.59247 | 25790 ft | 438 kts | 310° |
| 2026-05-06 14:21 | 49.30224 | 10.55930 | 25255 ft | 434 kts | 310° |
| 2026-05-06 14:21 | 49.32304 | 10.52629 | 24679 ft | 429 kts | 310° |
| 2026-05-06 14:21 | 49.34352 | 10.49379 | 24213 ft | 414 kts | 310° |
| 2026-05-06 14:22 | 49.36234 | 10.46196 | 23985 ft | 389 kts | 304° |
| 2026-05-06 14:22 | 49.37764 | 10.42956 | 23864 ft | 365 kts | 301° |
| 2026-05-06 14:22 | 49.39175 | 10.39871 | 23596 ft | 350 kts | 301° |
| 2026-05-06 14:22 | 49.40579 | 10.36791 | 22885 ft | 347 kts | 301° |
| 2026-05-06 14:23 | 49.41954 | 10.33765 | 22032 ft | 348 kts | 301° |
| 2026-05-06 14:23 | 49.43319 | 10.30767 | 21436 ft | 346 kts | 301° |
| 2026-05-06 14:23 | 49.44698 | 10.27736 | 21059 ft | 343 kts | 301° |
| 2026-05-06 14:23 | 49.46064 | 10.24732 | 20656 ft | 340 kts | 301° |
| 2026-05-06 14:24 | 49.47412 | 10.21764 | 20218 ft | 339 kts | 301° |
| 2026-05-06 14:24 | 49.48752 | 10.18809 | 19796 ft | 337 kts | 301° |
| 2026-05-06 14:24 | 49.50084 | 10.15871 | 19404 ft | 335 kts | 301° |
| 2026-05-06 14:24 | 49.51417 | 10.12926 | 18999 ft | 332 kts | 301° |
| 2026-05-06 14:25 | 49.52726 | 10.10033 | 18797 ft | 325 kts | 301° |
| 2026-05-06 14:25 | 49.54031 | 10.07141 | 18790 ft | 330 kts | 301° |
| 2026-05-06 14:25 | 49.55322 | 10.04283 | 18522 ft | 325 kts | 301° |
| 2026-05-06 14:25 | 49.56609 | 10.01424 | 18006 ft | 327 kts | 301° |
| 2026-05-06 14:26 | 49.57900 | 9.98559 | 17790 ft | 321 kts | 301° |
| 2026-05-06 14:26 | 49.59172 | 9.95730 | 17769 ft | 327 kts | 301° |
| 2026-05-06 14:26 | 49.60457 | 9.92869 | 17601 ft | 320 kts | 302° |
| 2026-05-06 14:26 | 49.61731 | 9.90030 | 17116 ft | 322 kts | 302° |
| 2026-05-06 14:27 | 49.63005 | 9.87186 | 16698 ft | 321 kts | 302° |
| 2026-05-06 14:27 | 49.64270 | 9.84363 | 16324 ft | 318 kts | 302° |
| 2026-05-06 14:27 | 49.65518 | 9.81572 | 15971 ft | 316 kts | 302° |
| 2026-05-06 14:27 | 49.66766 | 9.78780 | 15598 ft | 314 kts | 302° |
| 2026-05-06 14:28 | 49.67994 | 9.76026 | 15240 ft | 311 kts | 302° |
| 2026-05-06 14:28 | 49.69223 | 9.73270 | 14868 ft | 309 kts | 302° |
| 2026-05-06 14:28 | 49.70428 | 9.70566 | 14507 ft | 307 kts | 302° |
| 2026-05-06 14:28 | 49.71637 | 9.67848 | 14151 ft | 305 kts | 302° |
| 2026-05-06 14:29 | 49.72832 | 9.65160 | 13830 ft | 301 kts | 302° |
| 2026-05-06 14:29 | 49.74015 | 9.62496 | 13770 ft | 301 kts | 302° |
| 2026-05-06 14:29 | 49.75180 | 9.59870 | 13570 ft | 296 kts | 302° |
| 2026-05-06 14:29 | 49.76345 | 9.57237 | 13076 ft | 299 kts | 302° |
| 2026-05-06 14:30 | 49.77522 | 9.54578 | 12713 ft | 298 kts | 302° |
| 2026-05-06 14:30 | 49.78698 | 9.51918 | 12355 ft | 296 kts | 302° |
| 2026-05-06 14:30 | 49.79841 | 9.49331 | 12022 ft | 293 kts | 302° |
| 2026-05-06 14:30 | 49.80993 | 9.46720 | 11663 ft | 292 kts | 302° |
| 2026-05-06 14:31 | 49.82138 | 9.44123 | 11322 ft | 290 kts | 302° |
| 2026-05-06 14:31 | 49.83267 | 9.41560 | 10968 ft | 288 kts | 302° |
| 2026-05-06 14:31 | 49.84385 | 9.39019 | 10769 ft | 283 kts | 302° |
| 2026-05-06 14:31 | 49.85496 | 9.36485 | 10752 ft | 287 kts | 301° |
| 2026-05-06 14:32 | 49.86395 | 9.33744 | 10736 ft | 281 kts | 287° |
| 2026-05-06 14:32 | 49.87042 | 9.30931 | 10395 ft | 281 kts | 294° |
| 2026-05-06 14:32 | 49.88291 | 9.28595 | 9933 ft | 288 kts | 321° |
| 2026-05-06 14:32 | 49.90066 | 9.27121 | 9557 ft | 290 kts | 333° |
| 2026-05-06 14:33 | 49.91914 | 9.25871 | 9195 ft | 290 kts | 334° |
| 2026-05-06 14:33 | 49.93777 | 9.24624 | 8822 ft | 289 kts | 333° |
| 2026-05-06 14:33 | 49.95629 | 9.23383 | 8436 ft | 290 kts | 334° |
| 2026-05-06 14:33 | 49.97474 | 9.22140 | 7957 ft | 287 kts | 334° |
| 2026-05-06 14:34 | 49.99272 | 9.20922 | 7516 ft | 280 kts | 334° |
| 2026-05-06 14:34 | 50.01060 | 9.19712 | 7074 ft | 274 kts | 334° |
| 2026-05-06 14:34 | 50.02786 | 9.18541 | 6638 ft | 269 kts | 334° |
| 2026-05-06 14:34 | 50.04480 | 9.17390 | 6207 ft | 265 kts | 334° |
| 2026-05-06 14:35 | 50.06168 | 9.16244 | 5770 ft | 261 kts | 334° |
| 2026-05-06 14:35 | 50.07823 | 9.15114 | 5325 ft | 258 kts | 334° |
| 2026-05-06 14:35 | 50.09357 | 9.13770 | 4863 ft | 252 kts | 314° |
| 2026-05-06 14:35 | 50.10298 | 9.11554 | 4427 ft | 246 kts | 288° |
| 2026-05-06 14:36 | 50.10777 | 9.08976 | 4054 ft | 249 kts | 284° |
| 2026-05-06 14:36 | 50.11187 | 9.06469 | 3982 ft | 238 kts | 284° |
| 2026-05-06 14:36 | 50.11577 | 9.04071 | 3973 ft | 226 kts | 284° |
| 2026-05-06 14:36 | 50.11960 | 9.01713 | 3985 ft | 224 kts | 284° |
| 2026-05-06 14:37 | 50.12336 | 8.99376 | 3984 ft | 223 kts | 283° |
| 2026-05-06 14:37 | 50.12502 | 8.96987 | 3987 ft | 224 kts | 267° |
| 2026-05-06 14:37 | 50.12291 | 8.94593 | 3983 ft | 220 kts | 258° |
| 2026-05-06 14:37 | 50.11921 | 8.92353 | 3979 ft | 206 kts | 255° |
| 2026-05-06 14:38 | 50.11502 | 8.90286 | 3976 ft | 191 kts | 252° |
| 2026-05-06 14:38 | 50.11072 | 8.88373 | 3983 ft | 187 kts | 251° |
| 2026-05-06 14:38 | 50.10627 | 8.86472 | 3988 ft | 187 kts | 251° |
| 2026-05-06 14:38 | 50.10164 | 8.84530 | 3816 ft | 192 kts | 251° |
| 2026-05-06 14:39 | 50.09704 | 8.82603 | 3561 ft | 191 kts | 251° |
| 2026-05-06 14:39 | 50.09241 | 8.80653 | 3294 ft | 191 kts | 252° |
| 2026-05-06 14:39 | 50.08779 | 8.78708 | 3048 ft | 191 kts | 252° |
| 2026-05-06 14:39 | 50.08323 | 8.76787 | 2804 ft | 191 kts | 252° |
| 2026-05-06 14:40 | 50.07862 | 8.74842 | 2545 ft | 188 kts | 252° |
| 2026-05-06 14:40 | 50.07426 | 8.73007 | 2313 ft | 174 kts | 252° |
| 2026-05-06 14:40 | 50.07013 | 8.71271 | 2090 ft | 168 kts | 252° |
| 2026-05-06 14:40 | 50.06611 | 8.69578 | 1868 ft | 164 kts | 252° |
| 2026-05-06 14:41 | 50.06229 | 8.67974 | 1652 ft | 153 kts | 252° |
| 2026-05-06 14:41 | 50.05869 | 8.66461 | 1451 ft | 144 kts | 251° |
| 2026-05-06 14:41 | 50.05534 | 8.65055 | 1269 ft | 136 kts | 251° |
| 2026-05-06 14:41 | 50.05206 | 8.63679 | 1087 ft | 135 kts | 251° |
| 2026-05-06 14:42 | 50.04883 | 8.62322 | 902 ft | 135 kts | 251° |
| 2026-05-06 14:42 | 50.04560 | 8.60955 | 711 ft | 134 kts | 250° |
| 2026-05-06 14:42 | 50.04229 | 8.59595 | 531 ft | 133 kts | 250° |
| 2026-05-06 14:42 | 50.03910 | 8.58259 | 381 ft | 131 kts | 249° |
| 2026-05-06 14:43 | 50.03630 | 8.57080 | 363 ft | 96 kts | 250° |
| 2026-05-06 14:43 | 50.03451 | 8.56330 | 357 ft | 51 kts | 250° |
| 2026-05-06 14:43 | 50.03341 | 8.55864 | 355 ft | 38 kts | 253° |
| 2026-05-06 14:43 | 50.03312 | 8.55554 | 353 ft | 20 kts | 274° |
| 2026-05-06 14:44 | 50.03326 | 8.55395 | 353 ft | 11 kts | 278° |
| 2026-05-06 14:44 | 50.03335 | 8.55303 | 352 ft | 6 kts | 279° |
| 2026-05-06 14:44 | 50.03349 | 8.55219 | 352 ft | 10 kts | 295° |
| 2026-05-06 14:45 | 50.03438 | 8.55247 | 353 ft | 9 kts | 64° |
| 2026-05-06 14:45 | 50.03466 | 8.55363 | 354 ft | 13 kts | 70° |
| 2026-05-06 14:45 | 50.03503 | 8.55522 | 354 ft | 17 kts | 69° |
| 2026-05-06 14:45 | 50.03545 | 8.55689 | 355 ft | 16 kts | 70° |
| 2026-05-06 14:46 | 50.03583 | 8.55847 | 356 ft | 15 kts | 70° |
| 2026-05-06 14:46 | 50.03619 | 8.55999 | 357 ft | 14 kts | 70° |
| 2026-05-06 14:46 | 50.03652 | 8.56140 | 358 ft | 13 kts | 70° |
| 2026-05-06 14:46 | 50.03684 | 8.56276 | 359 ft | 13 kts | 70° |
| 2026-05-06 14:47 | 50.03715 | 8.56405 | 360 ft | 13 kts | 70° |
| 2026-05-06 14:47 | 50.03749 | 8.56550 | 361 ft | 15 kts | 70° |
| 2026-05-06 14:47 | 50.03787 | 8.56711 | 362 ft | 16 kts | 70° |
| 2026-05-06 14:47 | 50.03831 | 8.56889 | 363 ft | 18 kts | 69° |
| 2026-05-06 14:48 | 50.03877 | 8.57080 | 365 ft | 19 kts | 70° |
| 2026-05-06 14:48 | 50.03923 | 8.57279 | 367 ft | 20 kts | 71° |
| 2026-05-06 14:48 | 50.03973 | 8.57482 | 369 ft | 19 kts | 71° |
| 2026-05-06 14:48 | 50.04016 | 8.57669 | 370 ft | 17 kts | 70° |
| 2026-05-06 14:49 | 50.04057 | 8.57840 | 371 ft | 16 kts | 70° |
| 2026-05-06 14:49 | 50.04096 | 8.58001 | 372 ft | 15 kts | 70° |
| 2026-05-06 14:49 | 50.04150 | 8.58134 | 373 ft | 14 kts | 38° |
| 2026-05-06 14:49 | 50.04226 | 8.58201 | 374 ft | 10 kts | 26° |
| 2026-05-06 14:50 | 50.04272 | 8.58207 | 374 ft | 0 kts | 347° |
| 2026-05-06 14:51 | 50.04290 | 8.58200 | 375 ft | 7 kts | 344° |
| 2026-05-06 14:51 | 50.04366 | 8.58158 | 375 ft | 12 kts | 340° |
| 2026-05-06 14:51 | 50.04447 | 8.58110 | 375 ft | 12 kts | 339° |
| 2026-05-06 14:52 | 50.04527 | 8.58064 | 375 ft | 12 kts | 341° |
| 2026-05-06 14:52 | 50.04607 | 8.58019 | 375 ft | 9 kts | 340° |
| 2026-05-06 14:52 | 50.04630 | 8.58006 | 375 ft | 0 kts | 340° |
| 2026-05-06 14:56 | 50.04631 | 8.58006 | 375 ft | 0 kts | 340° |
| 2026-05-06 14:56 | 50.04669 | 8.57983 | 375 ft | 10 kts | 340° |
| 2026-05-06 14:57 | 50.04708 | 8.57912 | 375 ft | 9 kts | 263° |
| 2026-05-06 14:57 | 50.04687 | 8.57813 | 374 ft | 10 kts | 250° |
| 2026-05-06 14:57 | 50.04662 | 8.57707 | 373 ft | 11 kts | 250° |
| 2026-05-06 14:57 | 50.04634 | 8.57590 | 372 ft | 11 kts | 249° |
| 2026-05-06 14:58 | 50.04608 | 8.57478 | 371 ft | 9 kts | 261° |
| 2026-05-06 14:58 | 50.04629 | 8.57393 | 371 ft | 5 kts | 336° |
| 2026-05-06 14:58 | 50.04668 | 8.57397 | 371 ft | 6 kts | 13° |
| 2026-05-06 14:58 | 50.04710 | 8.57411 | 371 ft | 6 kts | 9° |
| 2026-05-06 14:59 | 50.04738 | 8.57437 | 372 ft | 4 kts | 43° |
| 2026-05-06 14:59 | 50.04744 | 8.57445 | 372 ft | 1 kts | 44° |
| 2026-05-06 14:59 | 50.04750 | 8.57454 | 372 ft | 0 kts | 44° |